sensor_id;sensor_type;location;lat;lon;timestamp;temperature;humidity
52941;DHT22;62001;53.366;6.636;2022-12-10T00:01:31;-2.10;99.90
52941;DHT22;62001;53.366;6.636;2022-12-10T00:03:57;-2.10;99.90
52941;DHT22;62001;53.366;6.636;2022-12-10T00:06:28;-2.10;99.90
52941;DHT22;62001;53.366;6.636;2022-12-10T00:08:55;-2.10;99.90
52941;DHT22;62001;53.366;6.636;2022-12-10T00:11:22;-2.10;99.90
52941;DHT22;62001;53.366;6.636;2022-12-10T00:13:49;-2.20;99.90
52941;DHT22;62001;53.366;6.636;2022-12-10T00:16:16;-2.20;99.90
52941;DHT22;62001;53.366;6.636;2022-12-10T00:18:43;-2.20;99.90
52941;DHT22;62001;53.366;6.636;2022-12-10T00:21:12;-2.20;99.90
52941;DHT22;62001;53.366;6.636;2022-12-10T00:23:38;-2.20;99.90
52941;DHT22;62001;53.366;6.636;2022-12-10T00:26:09;-2.20;99.90
52941;DHT22;62001;53.366;6.636;2022-12-10T00:28:36;-2.20;99.90
52941;DHT22;62001;53.366;6.636;2022-12-10T00:31:04;-2.20;99.90
52941;DHT22;62001;53.366;6.636;2022-12-10T00:33:30;-2.30;99.90
52941;DHT22;62001;53.366;6.636;2022-12-10T00:35:55;-2.30;99.90
52941;DHT22;62001;53.366;6.636;2022-12-10T00:38:21;-2.20;99.90
52941;DHT22;62001;53.366;6.636;2022-12-10T00:40:47;-2.20;99.90
52941;DHT22;62001;53.366;6.636;2022-12-10T00:43:13;-2.20;99.90
52941;DHT22;62001;53.366;6.636;2022-12-10T00:45:41;-2.20;99.90
52941;DHT22;62001;53.366;6.636;2022-12-10T00:48:09;-2.20;99.90
52941;DHT22;62001;53.366;6.636;2022-12-10T00:50:35;-2.20;99.90
52941;DHT22;62001;53.366;6.636;2022-12-10T00:53:01;-2.30;99.90
52941;DHT22;62001;53.366;6.636;2022-12-10T00:55:27;-2.30;99.90
52941;DHT22;62001;53.366;6.636;2022-12-10T00:57:52;-2.40;99.90
52941;DHT22;62001;53.366;6.636;2022-12-10T01:00:18;-2.40;99.90
52941;DHT22;62001;53.366;6.636;2022-12-10T01:02:44;-2.40;99.90
52941;DHT22;62001;53.366;6.636;2022-12-10T01:05:12;-2.40;99.90
52941;DHT22;62001;53.366;6.636;2022-12-10T01:07:38;-2.40;99.90
52941;DHT22;62001;53.366;6.636;2022-12-10T01:10:04;-2.40;99.90
52941;DHT22;62001;53.366;6.636;2022-12-10T01:12:30;-2.40;99.90
52941;DHT22;62001;53.366;6.636;2022-12-10T01:14:56;-2.30;99.90
52941;DHT22;62001;53.366;6.636;2022-12-10T01:17:22;-2.30;99.90
52941;DHT22;62001;53.366;6.636;2022-12-10T01:19:48;-2.30;99.90
52941;DHT22;62001;53.366;6.636;2022-12-10T01:22:13;-2.30;99.90
52941;DHT22;62001;53.366;6.636;2022-12-10T01:24:39;-2.30;99.90
52941;DHT22;62001;53.366;6.636;2022-12-10T01:27:05;-2.30;99.90
52941;DHT22;62001;53.366;6.636;2022-12-10T01:29:31;-2.30;99.90
52941;DHT22;62001;53.366;6.636;2022-12-10T01:31:57;-2.30;99.90
52941;DHT22;62001;53.366;6.636;2022-12-10T01:34:24;-2.30;99.90
52941;DHT22;62001;53.366;6.636;2022-12-10T01:36:52;-2.30;99.90
52941;DHT22;62001;53.366;6.636;2022-12-10T01:39:20;-2.40;99.90
52941;DHT22;62001;53.366;6.636;2022-12-10T01:41:54;-2.40;99.90
52941;DHT22;62001;53.366;6.636;2022-12-10T01:46:48;-2.40;99.90
52941;DHT22;62001;53.366;6.636;2022-12-10T01:49:23;-2.30;99.90
52941;DHT22;62001;53.366;6.636;2022-12-10T01:51:52;-2.30;99.90
52941;DHT22;62001;53.366;6.636;2022-12-10T01:54:25;-2.30;99.90
52941;DHT22;62001;53.366;6.636;2022-12-10T01:57:00;-2.20;99.90
52941;DHT22;62001;53.366;6.636;2022-12-10T01:59:27;-2.20;99.90
52941;DHT22;62001;53.366;6.636;2022-12-10T02:05:20;-2.10;99.90
52941;DHT22;62001;53.366;6.636;2022-12-10T02:11:12;-2.10;99.90
52941;DHT22;62001;53.366;6.636;2022-12-10T02:14:19;-2.00;99.90
52941;DHT22;62001;53.366;6.636;2022-12-10T02:17:18;-2.10;99.90
52941;DHT22;62001;53.366;6.636;2022-12-10T02:20:02;-2.00;99.90
52941;DHT22;62001;53.366;6.636;2022-12-10T02:22:46;-1.90;99.90
52941;DHT22;62001;53.366;6.636;2022-12-10T02:25:15;-1.90;99.90
52941;DHT22;62001;53.366;6.636;2022-12-10T02:28:03;-2.00;99.90
52941;DHT22;62001;53.366;6.636;2022-12-10T02:30:31;-2.00;99.90
52941;DHT22;62001;53.366;6.636;2022-12-10T02:32:59;-2.00;99.90
52941;DHT22;62001;53.366;6.636;2022-12-10T02:35:28;-2.00;99.90
52941;DHT22;62001;53.366;6.636;2022-12-10T02:38:01;-2.00;99.90
52941;DHT22;62001;53.366;6.636;2022-12-10T02:40:32;-2.00;99.90
52941;DHT22;62001;53.366;6.636;2022-12-10T02:42:59;-2.00;99.90
52941;DHT22;62001;53.366;6.636;2022-12-10T02:45:27;-2.10;99.90
52941;DHT22;62001;53.366;6.636;2022-12-10T02:47:57;-2.10;99.90
52941;DHT22;62001;53.366;6.636;2022-12-10T02:50:24;-2.10;99.90
52941;DHT22;62001;53.366;6.636;2022-12-10T02:52:50;-2.20;99.90
52941;DHT22;62001;53.366;6.636;2022-12-10T02:55:17;-2.10;99.90
52941;DHT22;62001;53.366;6.636;2022-12-10T02:57:54;-2.20;99.90
52941;DHT22;62001;53.366;6.636;2022-12-10T03:00:27;-2.30;99.90
52941;DHT22;62001;53.366;6.636;2022-12-10T03:05:46;-2.40;99.90
52941;DHT22;62001;53.366;6.636;2022-12-10T03:08:31;-2.40;99.90
52941;DHT22;62001;53.366;6.636;2022-12-10T03:10:59;-2.40;99.90
52941;DHT22;62001;53.366;6.636;2022-12-10T03:13:34;-2.50;99.90
52941;DHT22;62001;53.366;6.636;2022-12-10T03:16:02;-2.50;99.90
52941;DHT22;62001;53.366;6.636;2022-12-10T03:18:31;-2.50;99.90
52941;DHT22;62001;53.366;6.636;2022-12-10T03:21:05;-2.60;99.90
52941;DHT22;62001;53.366;6.636;2022-12-10T03:23:39;-2.60;99.90
52941;DHT22;62001;53.366;6.636;2022-12-10T03:26:06;-2.60;99.90
52941;DHT22;62001;53.366;6.636;2022-12-10T03:28:40;-2.60;99.90
52941;DHT22;62001;53.366;6.636;2022-12-10T03:31:10;-2.60;99.90
52941;DHT22;62001;53.366;6.636;2022-12-10T03:33:38;-2.60;99.90
52941;DHT22;62001;53.366;6.636;2022-12-10T03:36:08;-2.60;99.90
52941;DHT22;62001;53.366;6.636;2022-12-10T03:38:35;-2.60;99.90
52941;DHT22;62001;53.366;6.636;2022-12-10T03:41:02;-2.60;99.90
52941;DHT22;62001;53.366;6.636;2022-12-10T03:43:28;-2.60;99.90
52941;DHT22;62001;53.366;6.636;2022-12-10T03:45:53;-2.60;99.90
52941;DHT22;62001;53.366;6.636;2022-12-10T03:48:19;-2.60;99.90
52941;DHT22;62001;53.366;6.636;2022-12-10T03:50:45;-2.60;99.90
52941;DHT22;62001;53.366;6.636;2022-12-10T03:53:12;-2.60;99.90
52941;DHT22;62001;53.366;6.636;2022-12-10T03:55:38;-2.50;99.90
52941;DHT22;62001;53.366;6.636;2022-12-10T03:58:04;-2.50;99.90
52941;DHT22;62001;53.366;6.636;2022-12-10T04:00:29;-2.40;99.90
52941;DHT22;62001;53.366;6.636;2022-12-10T04:02:55;-2.30;99.90
52941;DHT22;62001;53.366;6.636;2022-12-10T04:05:21;-2.30;99.90
52941;DHT22;62001;53.366;6.636;2022-12-10T04:07:47;-2.30;99.90
52941;DHT22;62001;53.366;6.636;2022-12-10T04:10:13;-2.20;99.90
52941;DHT22;62001;53.366;6.636;2022-12-10T04:12:39;-2.10;99.90
52941;DHT22;62001;53.366;6.636;2022-12-10T04:15:05;-2.10;99.90
52941;DHT22;62001;53.366;6.636;2022-12-10T04:17:49;-2.00;99.90
52941;DHT22;62001;53.366;6.636;2022-12-10T04:20:15;-2.00;99.90
52941;DHT22;62001;53.366;6.636;2022-12-10T04:23:00;-2.00;99.90
52941;DHT22;62001;53.366;6.636;2022-12-10T04:25:45;-2.00;99.90
52941;DHT22;62001;53.366;6.636;2022-12-10T04:28:29;-1.90;99.90
52941;DHT22;62001;53.366;6.636;2022-12-10T04:30:55;-2.00;99.90
52941;DHT22;62001;53.366;6.636;2022-12-10T04:33:20;-1.90;99.90
52941;DHT22;62001;53.366;6.636;2022-12-10T04:35:46;-1.90;99.90
52941;DHT22;62001;53.366;6.636;2022-12-10T04:38:12;-1.90;99.90
52941;DHT22;62001;53.366;6.636;2022-12-10T04:40:38;-1.80;99.90
52941;DHT22;62001;53.366;6.636;2022-12-10T04:43:04;-1.80;99.90
52941;DHT22;62001;53.366;6.636;2022-12-10T04:45:30;-1.80;99.90
52941;DHT22;62001;53.366;6.636;2022-12-10T04:47:55;-1.80;99.90
52941;DHT22;62001;53.366;6.636;2022-12-10T04:50:21;-1.80;99.90
52941;DHT22;62001;53.366;6.636;2022-12-10T04:52:47;-1.80;99.90
52941;DHT22;62001;53.366;6.636;2022-12-10T04:55:13;-1.70;99.90
52941;DHT22;62001;53.366;6.636;2022-12-10T04:57:38;-1.70;99.90
52941;DHT22;62001;53.366;6.636;2022-12-10T05:00:04;-1.70;99.90
52941;DHT22;62001;53.366;6.636;2022-12-10T05:02:30;-1.60;99.90
52941;DHT22;62001;53.366;6.636;2022-12-10T05:04:56;-1.60;99.90
52941;DHT22;62001;53.366;6.636;2022-12-10T05:07:22;-1.60;99.90
52941;DHT22;62001;53.366;6.636;2022-12-10T05:09:48;-1.60;99.90
52941;DHT22;62001;53.366;6.636;2022-12-10T05:12:14;-1.60;99.90
52941;DHT22;62001;53.366;6.636;2022-12-10T05:14:39;-1.50;99.90
52941;DHT22;62001;53.366;6.636;2022-12-10T05:17:05;-1.60;99.90
52941;DHT22;62001;53.366;6.636;2022-12-10T05:19:31;-1.50;99.90
52941;DHT22;62001;53.366;6.636;2022-12-10T05:21:57;-1.50;99.90
52941;DHT22;62001;53.366;6.636;2022-12-10T05:24:41;-1.50;99.90
52941;DHT22;62001;53.366;6.636;2022-12-10T05:27:07;-1.50;99.90
52941;DHT22;62001;53.366;6.636;2022-12-10T05:29:33;-1.60;99.90
52941;DHT22;62001;53.366;6.636;2022-12-10T05:31:59;-1.60;99.90
52941;DHT22;62001;53.366;6.636;2022-12-10T05:34:25;-1.60;99.90
52941;DHT22;62001;53.366;6.636;2022-12-10T05:36:51;-1.60;99.90
52941;DHT22;62001;53.366;6.636;2022-12-10T05:39:17;-1.60;99.90
52941;DHT22;62001;53.366;6.636;2022-12-10T05:41:43;-1.60;99.90
52941;DHT22;62001;53.366;6.636;2022-12-10T05:44:11;-1.50;99.90
52941;DHT22;62001;53.366;6.636;2022-12-10T05:46:37;-1.50;99.90
52941;DHT22;62001;53.366;6.636;2022-12-10T05:49:04;-1.50;99.90
52941;DHT22;62001;53.366;6.636;2022-12-10T05:51:32;-1.50;99.90
52941;DHT22;62001;53.366;6.636;2022-12-10T05:54:00;-1.50;99.90
52941;DHT22;62001;53.366;6.636;2022-12-10T05:56:27;-1.50;99.90
52941;DHT22;62001;53.366;6.636;2022-12-10T05:58:57;-1.50;99.90
52941;DHT22;62001;53.366;6.636;2022-12-10T06:01:24;-1.50;99.90
52941;DHT22;62001;53.366;6.636;2022-12-10T06:03:51;-1.50;99.90
52941;DHT22;62001;53.366;6.636;2022-12-10T06:06:24;-1.60;99.90
52941;DHT22;62001;53.366;6.636;2022-12-10T06:08:51;-1.60;99.90
52941;DHT22;62001;53.366;6.636;2022-12-10T06:11:18;-1.60;99.90
52941;DHT22;62001;53.366;6.636;2022-12-10T06:13:44;-1.70;99.90
52941;DHT22;62001;53.366;6.636;2022-12-10T06:16:11;-1.70;99.90
52941;DHT22;62001;53.366;6.636;2022-12-10T06:18:37;-1.60;99.90
52941;DHT22;62001;53.366;6.636;2022-12-10T06:21:08;-1.60;99.90
52941;DHT22;62001;53.366;6.636;2022-12-10T06:23:35;-1.60;99.90
52941;DHT22;62001;53.366;6.636;2022-12-10T06:26:14;-1.60;99.90
52941;DHT22;62001;53.366;6.636;2022-12-10T06:28:41;-1.60;99.90
52941;DHT22;62001;53.366;6.636;2022-12-10T06:31:19;-1.60;99.90
52941;DHT22;62001;53.366;6.636;2022-12-10T06:33:46;-1.60;99.90
52941;DHT22;62001;53.366;6.636;2022-12-10T06:36:14;-1.60;99.90
52941;DHT22;62001;53.366;6.636;2022-12-10T06:38:40;-1.60;99.90
52941;DHT22;62001;53.366;6.636;2022-12-10T06:41:09;-1.60;99.90
52941;DHT22;62001;53.366;6.636;2022-12-10T06:43:36;-1.60;99.90
52941;DHT22;62001;53.366;6.636;2022-12-10T06:46:09;-1.60;99.90
52941;DHT22;62001;53.366;6.636;2022-12-10T06:48:36;-1.60;99.90
52941;DHT22;62001;53.366;6.636;2022-12-10T06:51:03;-1.60;99.90
52941;DHT22;62001;53.366;6.636;2022-12-10T06:53:31;-1.60;99.90
52941;DHT22;62001;53.366;6.636;2022-12-10T06:56:00;-1.60;99.90
52941;DHT22;62001;53.366;6.636;2022-12-10T06:58:30;-1.60;99.90
52941;DHT22;62001;53.366;6.636;2022-12-10T07:03:29;-1.70;99.90
52941;DHT22;62001;53.366;6.636;2022-12-10T07:05:59;-1.70;99.90
52941;DHT22;62001;53.366;6.636;2022-12-10T07:08:25;-1.70;99.90
52941;DHT22;62001;53.366;6.636;2022-12-10T07:10:51;-1.70;99.90
52941;DHT22;62001;53.366;6.636;2022-12-10T07:13:17;-1.70;99.90
52941;DHT22;62001;53.366;6.636;2022-12-10T07:15:43;-1.70;99.90
52941;DHT22;62001;53.366;6.636;2022-12-10T07:18:09;-1.70;99.90
52941;DHT22;62001;53.366;6.636;2022-12-10T07:20:35;-1.70;99.90
52941;DHT22;62001;53.366;6.636;2022-12-10T07:23:00;-1.70;99.90
52941;DHT22;62001;53.366;6.636;2022-12-10T07:25:26;-1.70;99.90
52941;DHT22;62001;53.366;6.636;2022-12-10T07:27:52;-1.70;99.90
52941;DHT22;62001;53.366;6.636;2022-12-10T07:30:18;-1.70;99.90
52941;DHT22;62001;53.366;6.636;2022-12-10T07:32:44;-1.70;99.90
52941;DHT22;62001;53.366;6.636;2022-12-10T07:35:09;-1.70;99.90
52941;DHT22;62001;53.366;6.636;2022-12-10T07:37:35;-1.70;99.90
52941;DHT22;62001;53.366;6.636;2022-12-10T07:40:01;-1.70;99.90
52941;DHT22;62001;53.366;6.636;2022-12-10T07:42:27;-1.80;99.90
52941;DHT22;62001;53.366;6.636;2022-12-10T07:44:53;-1.80;99.90
52941;DHT22;62001;53.366;6.636;2022-12-10T07:47:19;-1.90;99.90
52941;DHT22;62001;53.366;6.636;2022-12-10T07:49:45;-1.90;99.90
52941;DHT22;62001;53.366;6.636;2022-12-10T07:52:11;-2.00;99.90
52941;DHT22;62001;53.366;6.636;2022-12-10T07:54:36;-2.00;99.90
52941;DHT22;62001;53.366;6.636;2022-12-10T07:57:02;-2.00;99.90
52941;DHT22;62001;53.366;6.636;2022-12-10T07:59:28;-2.00;99.90
52941;DHT22;62001;53.366;6.636;2022-12-10T08:01:54;-2.00;99.90
52941;DHT22;62001;53.366;6.636;2022-12-10T08:04:20;-2.10;99.90
52941;DHT22;62001;53.366;6.636;2022-12-10T08:06:46;-2.10;99.90
52941;DHT22;62001;53.366;6.636;2022-12-10T08:09:13;-2.10;99.90
52941;DHT22;62001;53.366;6.636;2022-12-10T08:11:39;-2.20;99.90
52941;DHT22;62001;53.366;6.636;2022-12-10T08:14:04;-2.10;99.90
52941;DHT22;62001;53.366;6.636;2022-12-10T08:16:30;-2.10;99.90
52941;DHT22;62001;53.366;6.636;2022-12-10T08:18:59;-2.10;99.90
52941;DHT22;62001;53.366;6.636;2022-12-10T08:21:27;-2.10;99.90
52941;DHT22;62001;53.366;6.636;2022-12-10T08:23:54;-2.10;99.90
52941;DHT22;62001;53.366;6.636;2022-12-10T08:26:22;-2.10;99.90
52941;DHT22;62001;53.366;6.636;2022-12-10T08:28:50;-2.10;99.90
52941;DHT22;62001;53.366;6.636;2022-12-10T08:31:17;-2.10;99.90
52941;DHT22;62001;53.366;6.636;2022-12-10T08:33:43;-2.10;99.90
52941;DHT22;62001;53.366;6.636;2022-12-10T08:36:12;-2.00;99.90
52941;DHT22;62001;53.366;6.636;2022-12-10T08:38:38;-2.00;99.90
52941;DHT22;62001;53.366;6.636;2022-12-10T08:41:25;-2.00;99.90
52941;DHT22;62001;53.366;6.636;2022-12-10T08:43:52;-2.00;99.90
52941;DHT22;62001;53.366;6.636;2022-12-10T08:46:18;-2.00;99.90
52941;DHT22;62001;53.366;6.636;2022-12-10T08:48:44;-2.00;99.90
52941;DHT22;62001;53.366;6.636;2022-12-10T08:51:14;-1.90;99.90
52941;DHT22;62001;53.366;6.636;2022-12-10T08:53:40;-1.90;99.90
52941;DHT22;62001;53.366;6.636;2022-12-10T08:56:06;-1.90;99.90
52941;DHT22;62001;53.366;6.636;2022-12-10T08:58:32;-1.90;99.90
52941;DHT22;62001;53.366;6.636;2022-12-10T09:00:57;-1.90;99.90
52941;DHT22;62001;53.366;6.636;2022-12-10T09:03:24;-1.90;99.90
52941;DHT22;62001;53.366;6.636;2022-12-10T09:05:50;-1.80;99.90
52941;DHT22;62001;53.366;6.636;2022-12-10T09:08:16;-1.80;99.90
52941;DHT22;62001;53.366;6.636;2022-12-10T09:10:42;-1.70;99.90
52941;DHT22;62001;53.366;6.636;2022-12-10T09:13:08;-1.60;99.90
52941;DHT22;62001;53.366;6.636;2022-12-10T09:15:34;-1.50;99.90
52941;DHT22;62001;53.366;6.636;2022-12-10T09:18:01;-1.50;99.90
52941;DHT22;62001;53.366;6.636;2022-12-10T09:20:29;-1.50;99.90
52941;DHT22;62001;53.366;6.636;2022-12-10T09:22:55;-1.60;99.90
52941;DHT22;62001;53.366;6.636;2022-12-10T09:25:21;-1.50;99.90
52941;DHT22;62001;53.366;6.636;2022-12-10T09:27:47;-1.50;99.90
52941;DHT22;62001;53.366;6.636;2022-12-10T09:30:13;-1.50;99.90
52941;DHT22;62001;53.366;6.636;2022-12-10T09:32:39;-1.60;99.90
52941;DHT22;62001;53.366;6.636;2022-12-10T09:35:07;-1.50;99.90
52941;DHT22;62001;53.366;6.636;2022-12-10T09:37:35;-1.50;99.90
52941;DHT22;62001;53.366;6.636;2022-12-10T09:40:01;-1.50;99.90
52941;DHT22;62001;53.366;6.636;2022-12-10T09:43:11;-1.50;99.90
52941;DHT22;62001;53.366;6.636;2022-12-10T09:46:10;-1.60;99.90
52941;DHT22;62001;53.366;6.636;2022-12-10T09:51:36;-1.60;99.90
52941;DHT22;62001;53.366;6.636;2022-12-10T09:54:04;-1.60;99.90
52941;DHT22;62001;53.366;6.636;2022-12-10T09:56:38;-1.60;99.90
52941;DHT22;62001;53.366;6.636;2022-12-10T09:59:23;-1.60;99.90
52941;DHT22;62001;53.366;6.636;2022-12-10T10:04:41;-1.50;99.90
52941;DHT22;62001;53.366;6.636;2022-12-10T10:07:12;-1.50;99.90
52941;DHT22;62001;53.366;6.636;2022-12-10T10:09:43;-1.50;99.90
52941;DHT22;62001;53.366;6.636;2022-12-10T10:12:13;-1.60;99.90
52941;DHT22;62001;53.366;6.636;2022-12-10T10:14:42;-1.50;99.90
52941;DHT22;62001;53.366;6.636;2022-12-10T10:17:16;-1.50;99.90
52941;DHT22;62001;53.366;6.636;2022-12-10T10:19:44;-1.50;99.90
52941;DHT22;62001;53.366;6.636;2022-12-10T10:22:11;-1.50;99.90
52941;DHT22;62001;53.366;6.636;2022-12-10T10:24:41;-1.50;99.90
52941;DHT22;62001;53.366;6.636;2022-12-10T10:27:19;-1.40;99.90
52941;DHT22;62001;53.366;6.636;2022-12-10T10:29:48;-1.40;99.90
52941;DHT22;62001;53.366;6.636;2022-12-10T10:32:18;-1.40;99.90
52941;DHT22;62001;53.366;6.636;2022-12-10T10:34:46;-1.40;99.90
52941;DHT22;62001;53.366;6.636;2022-12-10T10:39:58;-1.30;99.90
52941;DHT22;62001;53.366;6.636;2022-12-10T10:42:38;-1.40;99.90
52941;DHT22;62001;53.366;6.636;2022-12-10T10:45:10;-1.30;99.90
52941;DHT22;62001;53.366;6.636;2022-12-10T10:50:49;-1.20;99.90
52941;DHT22;62001;53.366;6.636;2022-12-10T10:53:48;-1.20;99.90
52941;DHT22;62001;53.366;6.636;2022-12-10T10:56:21;-1.10;99.90
52941;DHT22;62001;53.366;6.636;2022-12-10T10:59:07;-1.00;99.90
52941;DHT22;62001;53.366;6.636;2022-12-10T11:04:11;-0.90;99.90
52941;DHT22;62001;53.366;6.636;2022-12-10T11:06:40;-0.90;99.90
52941;DHT22;62001;53.366;6.636;2022-12-10T11:09:06;-0.80;99.90
52941;DHT22;62001;53.366;6.636;2022-12-10T11:11:39;-0.80;99.90
52941;DHT22;62001;53.366;6.636;2022-12-10T11:14:24;-0.80;99.90
52941;DHT22;62001;53.366;6.636;2022-12-10T11:17:23;-0.80;99.90
52941;DHT22;62001;53.366;6.636;2022-12-10T11:20:28;-0.80;99.90
52941;DHT22;62001;53.366;6.636;2022-12-10T11:22:54;-0.80;99.90
52941;DHT22;62001;53.366;6.636;2022-12-10T11:25:39;-0.80;99.90
52941;DHT22;62001;53.366;6.636;2022-12-10T11:31:07;-0.90;99.90
52941;DHT22;62001;53.366;6.636;2022-12-10T11:33:39;-0.80;99.90
52941;DHT22;62001;53.366;6.636;2022-12-10T11:36:35;-0.70;99.90
52941;DHT22;62001;53.366;6.636;2022-12-10T11:40:28;-0.70;99.90
52941;DHT22;62001;53.366;6.636;2022-12-10T11:51:06;-0.60;99.90
52941;DHT22;62001;53.366;6.636;2022-12-10T11:56:26;-0.70;99.90
52941;DHT22;62001;53.366;6.636;2022-12-10T12:13:41;-0.70;99.90
52941;DHT22;62001;53.366;6.636;2022-12-10T12:16:13;-0.70;99.90
52941;DHT22;62001;53.366;6.636;2022-12-10T12:18:59;-0.70;99.90
52941;DHT22;62001;53.366;6.636;2022-12-10T12:21:26;-0.70;99.90
52941;DHT22;62001;53.366;6.636;2022-12-10T12:24:09;-0.70;99.90
52941;DHT22;62001;53.366;6.636;2022-12-10T12:26:40;-0.80;99.90
52941;DHT22;62001;53.366;6.636;2022-12-10T12:32:05;-0.70;99.90
52941;DHT22;62001;53.366;6.636;2022-12-10T12:34:51;-0.70;99.90
52941;DHT22;62001;53.366;6.636;2022-12-10T12:37:22;-0.70;99.90
52941;DHT22;62001;53.366;6.636;2022-12-10T12:43:01;-0.70;99.90
52941;DHT22;62001;53.366;6.636;2022-12-10T12:45:40;-0.60;99.90
52941;DHT22;62001;53.366;6.636;2022-12-10T12:48:17;-0.60;99.90
52941;DHT22;62001;53.366;6.636;2022-12-10T12:51:00;-0.60;99.90
52941;DHT22;62001;53.366;6.636;2022-12-10T12:53:27;-0.60;99.90
52941;DHT22;62001;53.366;6.636;2022-12-10T13:01:30;-0.60;99.90
52941;DHT22;62001;53.366;6.636;2022-12-10T13:03:59;-0.60;99.90
52941;DHT22;62001;53.366;6.636;2022-12-10T13:06:31;-0.60;99.90
52941;DHT22;62001;53.366;6.636;2022-12-10T13:12:18;-0.60;99.90
52941;DHT22;62001;53.366;6.636;2022-12-10T13:15:42;-0.60;99.90
52941;DHT22;62001;53.366;6.636;2022-12-10T13:20:46;-0.60;99.90
52941;DHT22;62001;53.366;6.636;2022-12-10T13:28:27;-0.50;99.90
52941;DHT22;62001;53.366;6.636;2022-12-10T13:33:48;-0.50;99.90
52941;DHT22;62001;53.366;6.636;2022-12-10T13:36:27;-0.40;99.90
52941;DHT22;62001;53.366;6.636;2022-12-10T13:41:32;-0.50;99.90
52941;DHT22;62001;53.366;6.636;2022-12-10T13:44:37;-0.50;99.90
52941;DHT22;62001;53.366;6.636;2022-12-10T13:49:56;-0.50;99.90
52941;DHT22;62001;53.366;6.636;2022-12-10T14:00:29;-0.40;99.90
52941;DHT22;62001;53.366;6.636;2022-12-10T14:08:27;-0.40;99.90
52941;DHT22;62001;53.366;6.636;2022-12-10T14:10:54;-0.40;99.90
52941;DHT22;62001;53.366;6.636;2022-12-10T14:13:32;-0.40;99.90
52941;DHT22;62001;53.366;6.636;2022-12-10T14:16:00;-0.40;99.90
52941;DHT22;62001;53.366;6.636;2022-12-10T14:18:28;-0.40;99.90
52941;DHT22;62001;53.366;6.636;2022-12-10T14:20:56;-0.40;99.90
52941;DHT22;62001;53.366;6.636;2022-12-10T14:26:27;-0.40;99.90
52941;DHT22;62001;53.366;6.636;2022-12-10T14:28:57;-0.40;99.90
52941;DHT22;62001;53.366;6.636;2022-12-10T14:34:03;-0.40;99.90
52941;DHT22;62001;53.366;6.636;2022-12-10T14:36:32;-0.30;99.90
52941;DHT22;62001;53.366;6.636;2022-12-10T14:38:59;-0.40;99.90
52941;DHT22;62001;53.366;6.636;2022-12-10T14:41:29;-0.40;99.90
52941;DHT22;62001;53.366;6.636;2022-12-10T14:43:57;-0.30;99.90
52941;DHT22;62001;53.366;6.636;2022-12-10T14:46:27;-0.30;99.90
52941;DHT22;62001;53.366;6.636;2022-12-10T14:48:53;-0.30;99.90
52941;DHT22;62001;53.366;6.636;2022-12-10T14:51:26;-0.30;99.90
52941;DHT22;62001;53.366;6.636;2022-12-10T14:53:53;-0.30;99.90
52941;DHT22;62001;53.366;6.636;2022-12-10T14:56:37;-0.30;99.90
52941;DHT22;62001;53.366;6.636;2022-12-10T14:59:12;-0.30;99.90
52941;DHT22;62001;53.366;6.636;2022-12-10T15:01:43;-0.30;99.90
52941;DHT22;62001;53.366;6.636;2022-12-10T15:04:14;-0.30;99.90
52941;DHT22;62001;53.366;6.636;2022-12-10T15:06:41;-0.20;99.90
52941;DHT22;62001;53.366;6.636;2022-12-10T15:09:20;-0.20;99.90
52941;DHT22;62001;53.366;6.636;2022-12-10T15:11:54;-0.20;99.90
52941;DHT22;62001;53.366;6.636;2022-12-10T15:14:21;-0.20;99.90
52941;DHT22;62001;53.366;6.636;2022-12-10T15:16:47;-0.20;99.90
52941;DHT22;62001;53.366;6.636;2022-12-10T15:19:20;-0.30;99.90
52941;DHT22;62001;53.366;6.636;2022-12-10T15:21:48;-0.30;99.90
52941;DHT22;62001;53.366;6.636;2022-12-10T15:24:27;-0.30;99.90
52941;DHT22;62001;53.366;6.636;2022-12-10T15:26:54;-0.30;99.90
52941;DHT22;62001;53.366;6.636;2022-12-10T15:32:00;-0.30;99.90
52941;DHT22;62001;53.366;6.636;2022-12-10T15:34:28;-0.30;99.90
52941;DHT22;62001;53.366;6.636;2022-12-10T15:36:59;-0.30;99.90
52941;DHT22;62001;53.366;6.636;2022-12-10T15:39:33;-0.30;99.90
52941;DHT22;62001;53.366;6.636;2022-12-10T15:42:05;-0.30;99.90
52941;DHT22;62001;53.366;6.636;2022-12-10T15:49:35;-0.30;99.90
52941;DHT22;62001;53.366;6.636;2022-12-10T15:52:02;-0.30;99.90
52941;DHT22;62001;53.366;6.636;2022-12-10T15:54:40;-0.30;99.90
52941;DHT22;62001;53.366;6.636;2022-12-10T15:57:21;-0.30;99.90
52941;DHT22;62001;53.366;6.636;2022-12-10T15:59:47;-0.30;99.90
52941;DHT22;62001;53.366;6.636;2022-12-10T16:02:38;-0.30;99.90
52941;DHT22;62001;53.366;6.636;2022-12-10T16:05:19;-0.30;99.90
52941;DHT22;62001;53.366;6.636;2022-12-10T16:07:48;-0.40;99.90
52941;DHT22;62001;53.366;6.636;2022-12-10T16:10:17;-0.40;99.90
52941;DHT22;62001;53.366;6.636;2022-12-10T16:12:46;-0.40;99.90
52941;DHT22;62001;53.366;6.636;2022-12-10T16:15:22;-0.40;99.90
52941;DHT22;62001;53.366;6.636;2022-12-10T16:17:51;-0.30;99.90
52941;DHT22;62001;53.366;6.636;2022-12-10T16:20:19;-0.30;99.90
52941;DHT22;62001;53.366;6.636;2022-12-10T16:22:46;-0.30;99.90
52941;DHT22;62001;53.366;6.636;2022-12-10T16:25:12;-0.30;99.90
52941;DHT22;62001;53.366;6.636;2022-12-10T16:27:38;-0.30;99.90
52941;DHT22;62001;53.366;6.636;2022-12-10T16:30:28;-0.30;99.90
52941;DHT22;62001;53.366;6.636;2022-12-10T16:32:55;-0.30;99.90
52941;DHT22;62001;53.366;6.636;2022-12-10T16:35:21;-0.40;99.90
52941;DHT22;62001;53.366;6.636;2022-12-10T16:37:48;-0.40;99.90
52941;DHT22;62001;53.366;6.636;2022-12-10T16:40:23;-0.40;99.90
52941;DHT22;62001;53.366;6.636;2022-12-10T16:42:50;-0.40;99.90
52941;DHT22;62001;53.366;6.636;2022-12-10T16:45:38;-0.40;99.90
52941;DHT22;62001;53.366;6.636;2022-12-10T16:48:08;-0.50;99.90
52941;DHT22;62001;53.366;6.636;2022-12-10T16:50:34;-0.50;99.90
52941;DHT22;62001;53.366;6.636;2022-12-10T16:53:14;-0.50;99.90
52941;DHT22;62001;53.366;6.636;2022-12-10T16:55:43;-0.40;99.90
52941;DHT22;62001;53.366;6.636;2022-12-10T16:58:12;-0.50;99.90
52941;DHT22;62001;53.366;6.636;2022-12-10T17:00:46;-0.50;99.90
52941;DHT22;62001;53.366;6.636;2022-12-10T17:03:12;-0.40;99.90
52941;DHT22;62001;53.366;6.636;2022-12-10T17:05:49;-0.50;99.90
52941;DHT22;62001;53.366;6.636;2022-12-10T17:08:16;-0.50;99.90
52941;DHT22;62001;53.366;6.636;2022-12-10T17:10:43;-0.40;99.90
52941;DHT22;62001;53.366;6.636;2022-12-10T17:13:28;-0.40;99.90
52941;DHT22;62001;53.366;6.636;2022-12-10T17:15:55;-0.40;99.90
52941;DHT22;62001;53.366;6.636;2022-12-10T17:18:22;-0.40;99.90
52941;DHT22;62001;53.366;6.636;2022-12-10T17:20:49;-0.40;99.90
52941;DHT22;62001;53.366;6.636;2022-12-10T17:23:15;-0.40;99.90
52941;DHT22;62001;53.366;6.636;2022-12-10T17:25:42;-0.40;99.90
52941;DHT22;62001;53.366;6.636;2022-12-10T17:28:14;-0.50;99.90
52941;DHT22;62001;53.366;6.636;2022-12-10T17:30:41;-0.50;99.90
52941;DHT22;62001;53.366;6.636;2022-12-10T17:33:12;-0.50;99.90
52941;DHT22;62001;53.366;6.636;2022-12-10T17:35:43;-0.50;99.90
52941;DHT22;62001;53.366;6.636;2022-12-10T17:38:17;-0.50;99.90
52941;DHT22;62001;53.366;6.636;2022-12-10T17:40:43;-0.60;99.90
52941;DHT22;62001;53.366;6.636;2022-12-10T17:43:10;-0.50;99.90
52941;DHT22;62001;53.366;6.636;2022-12-10T17:45:36;-0.60;99.90